Time;durP1;ratioP1;P1;durP2;ratioP2;P2;SDS_P1;SDS_P2;PMS_P1;PMS_P2;Temp;Humidity;BMP_temperature;BMP_pressure;BME280_temperature;BME280_humidity;BME280_pressure;Samples;Min_cycle;Max_cycle;Signal;HPM_P1;HPM_P2
2022/06/27 00:00:09;;;;;;;1.50;0.80;;;23.60;99.90;;;;;;5033717;28;20117;-87
2022/06/27 00:02:37;;;;;;;1.60;0.85;;;23.60;99.90;;;;;;5034255;28;20033;-87
2022/06/27 00:05:03;;;;;;;1.23;0.60;;;23.60;99.90;;;;;;5033585;28;20030;-88
2022/06/27 00:07:29;;;;;;;1.80;0.90;;;23.60;99.90;;;;;;5033627;28;20553;-88
2022/06/27 00:09:55;;;;;;;1.58;0.80;;;23.60;99.90;;;;;;5033608;28;20104;-88
2022/06/27 00:12:20;;;;;;;4.53;0.82;;;23.60;99.90;;;;;;5033485;28;20373;-89
2022/06/27 00:14:46;;;;;;;2.03;0.90;;;23.60;99.90;;;;;;5033478;28;20025;-90
2022/06/27 00:17:12;;;;;;;3.03;1.00;;;23.60;99.90;;;;;;5033448;28;20022;-89
2022/06/27 00:19:38;;;;;;;4.15;0.80;;;23.60;99.90;;;;;;5034992;28;20032;-89
2022/06/27 00:22:04;;;;;;;3.13;0.88;;;23.60;99.90;;;;;;5033257;28;20473;-87
2022/06/27 00:24:31;;;;;;;3.50;1.13;;;23.60;99.90;;;;;;5034406;28;20028;-86
2022/06/27 00:26:57;;;;;;;3.50;1.10;;;23.60;99.90;;;;;;5034659;28;20032;-91
2022/06/27 00:29:23;;;;;;;4.28;1.13;;;23.50;99.90;;;;;;5034579;28;20040;-93
2022/06/27 00:31:49;;;;;;;5.05;1.40;;;23.50;99.90;;;;;;5034111;28;20017;-92
2022/06/27 00:34:15;;;;;;;3.17;1.02;;;23.50;99.90;;;;;;5033644;28;20022;-93
2022/06/27 00:36:41;;;;;;;4.55;1.10;;;23.50;99.90;;;;;;5033488;28;20056;-91
2022/06/27 00:39:06;;;;;;;3.90;1.35;;;23.50;99.90;;;;;;5033476;28;20037;-92
2022/06/27 00:41:32;;;;;;;4.30;1.33;;;23.40;99.90;;;;;;5033957;28;20090;-93
2022/06/27 00:43:58;;;;;;;4.88;1.10;;;23.40;99.90;;;;;;5034097;28;20028;-93
2022/06/27 00:46:23;;;;;;;6.22;1.25;;;23.40;99.90;;;;;;5033740;28;20100;-95
2022/06/27 00:48:49;;;;;;;4.13;1.02;;;23.40;99.90;;;;;;5033765;28;20029;-92
2022/06/27 00:51:15;;;;;;;3.47;1.00;;;23.40;99.90;;;;;;5033965;28;20110;-90
2022/06/27 00:53:41;;;;;;;3.35;1.00;;;23.40;99.90;;;;;;5032982;28;20029;-90
2022/06/27 00:56:07;;;;;;;5.18;1.20;;;23.40;99.90;;;;;;5034354;28;20028;-89
2022/06/27 00:58:33;;;;;;;3.45;0.90;;;23.40;99.90;;;;;;5032625;28;20369;-89
2022/06/27 01:00:59;;;;;;;2.80;1.00;;;23.40;99.90;;;;;;5032579;28;20028;-88
2022/06/27 01:03:24;;;;;;;4.38;1.15;;;23.40;99.90;;;;;;5032381;28;20542;-88
2022/06/27 01:05:53;;;;;;;4.47;0.90;;;23.40;99.90;;;;;;5033772;28;20032;-88
2022/06/27 01:08:20;;;;;;;3.75;0.80;;;23.40;99.90;;;;;;5032527;28;20473;-88
2022/06/27 01:10:46;;;;;;;2.35;0.80;;;23.40;99.90;;;;;;5032393;28;20021;-88
2022/06/27 01:13:13;;;;;;;4.32;0.77;;;23.30;99.90;;;;;;5033711;28;20095;-88
2022/06/27 01:15:41;;;;;;;6.00;1.10;;;23.30;99.90;;;;;;5032336;28;20083;-88
2022/06/27 01:18:08;;;;;;;3.00;0.90;;;23.30;99.90;;;;;;5032287;28;20021;-88
2022/06/27 01:20:34;;;;;;;4.07;0.93;;;23.30;99.90;;;;;;5032249;28;20120;-87
2022/06/27 01:23:00;;;;;;;4.32;0.90;;;23.30;99.90;;;;;;5033847;28;20147;-87
2022/06/27 01:25:26;;;;;;;1.95;0.88;;;23.30;99.90;;;;;;5033691;28;20470;-87
2022/06/27 01:27:52;;;;;;;3.85;0.98;;;23.30;99.90;;;;;;5032197;28;20113;-87
2022/06/27 01:30:19;;;;;;;3.42;0.77;;;23.30;99.90;;;;;;5032170;28;20025;-88
2022/06/27 01:32:45;;;;;;;2.92;0.85;;;23.30;99.90;;;;;;5032034;28;20033;-88
2022/06/27 01:35:11;;;;;;;1.55;0.68;;;23.30;99.90;;;;;;5033164;28;20050;-87
2022/06/27 01:37:37;;;;;;;3.95;0.80;;;23.30;99.90;;;;;;5032099;28;20083;-86
2022/06/27 01:40:03;;;;;;;3.58;0.70;;;23.20;99.90;;;;;;5033267;28;20555;-87
2022/06/27 01:42:29;;;;;;;3.00;0.70;;;23.20;99.90;;;;;;5031919;28;20157;-87
2022/06/27 01:44:55;;;;;;;2.20;0.80;;;23.20;99.90;;;;;;5031933;28;20128;-87
2022/06/27 01:47:21;;;;;;;4.03;0.77;;;23.20;99.90;;;;;;5033224;28;20018;-88
2022/06/27 01:49:47;;;;;;;3.92;0.93;;;23.20;99.90;;;;;;5031947;28;20436;-87
2022/06/27 01:52:14;;;;;;;2.25;0.70;;;23.20;99.90;;;;;;5031939;28;20018;-88
2022/06/27 01:54:40;;;;;;;2.63;0.80;;;23.20;99.90;;;;;;5032031;28;20120;-87
2022/06/27 01:57:08;;;;;;;3.20;0.63;;;23.20;99.90;;;;;;5033339;28;20037;-87
2022/06/27 01:59:34;;;;;;;5.22;1.00;;;23.20;99.90;;;;;;5037278;28;20108;-87
2022/06/27 02:02:02;;;;;;;1.95;0.70;;;23.20;99.90;;;;;;5037213;28;20500;-87
2022/06/27 02:04:30;;;;;;;2.47;0.60;;;23.20;99.90;;;;;;5035818;28;20040;-88
2022/06/27 02:06:57;;;;;;;4.35;0.73;;;23.20;99.90;;;;;;5035909;28;20021;-87
2022/06/27 02:09:23;;;;;;;3.30;0.80;;;23.10;99.90;;;;;;5037070;28;20079;-87
2022/06/27 02:11:51;;;;;;;2.53;1.00;;;23.20;99.90;;;;;;5035708;28;20021;-87
2022/06/27 02:14:17;;;;;;;2.25;0.70;;;23.10;99.90;;;;;;5036261;28;20418;-87
2022/06/27 02:16:44;;;;;;;2.47;0.60;;;23.10;99.90;;;;;;5035672;28;20489;-87
2022/06/27 02:19:12;;;;;;;4.72;0.60;;;23.10;99.90;;;;;;5035644;28;20075;-87
2022/06/27 02:21:39;;;;;;;2.22;0.52;;;23.10;99.90;;;;;;5037074;28;20029;-87
2022/06/27 02:24:05;;;;;;;2.30;0.70;;;23.10;99.90;;;;;;5035398;28;20033;-87
2022/06/27 02:26:31;;;;;;;3.75;0.85;;;23.10;99.90;;;;;;5035476;28;20389;-87
2022/06/27 02:28:58;;;;;;;2.00;0.60;;;23.10;99.90;;;;;;5035414;28;20026;-87
2022/06/27 02:31:24;;;;;;;2.50;0.65;;;23.10;99.90;;;;;;5035399;28;20021;-87
2022/06/27 02:33:52;;;;;;;3.22;0.73;;;23.00;99.90;;;;;;5036693;28;20088;-87
2022/06/27 02:36:39;;;;;;;1.48;0.43;;;23.00;99.90;;;;;;5036347;28;20056;-88
2022/06/27 02:39:07;;;;;;;2.88;0.52;;;23.00;99.90;;;;;;5035287;28;20033;-87
2022/06/27 02:41:37;;;;;;;1.60;0.65;;;23.00;99.90;;;;;;5036435;28;20026;-87
2022/06/27 02:44:07;;;;;;;2.92;0.82;;;23.00;99.90;;;;;;5035045;28;20503;-87
2022/06/27 02:46:33;;;;;;;1.65;0.60;;;23.00;99.90;;;;;;5035105;28;20025;-88
2022/06/27 02:49:00;;;;;;;3.53;0.60;;;23.00;99.90;;;;;;5035058;28;20121;-87
2022/06/27 02:51:31;;;;;;;1.02;0.40;;;23.00;99.90;;;;;;5035064;28;20508;-87
2022/06/27 02:54:15;;;;;;;1.50;0.52;;;23.00;99.90;;;;;;5034994;28;20021;-87
2022/06/27 02:56:52;;;;;;;1.08;0.50;;;22.90;99.90;;;;;;5051748;28;20480;-87
2022/06/27 02:59:23;;;;;;;4.13;0.82;;;22.90;99.90;;;;;;5034869;28;20040;-87
2022/06/27 03:01:50;;;;;;;1.23;0.47;;;22.90;99.90;;;;;;5036065;28;20026;-87
2022/06/27 03:04:15;;;;;;;1.33;0.50;;;22.90;99.90;;;;;;5034703;28;20056;-87
2022/06/27 03:06:43;;;;;;;2.53;0.70;;;22.90;99.90;;;;;;5034768;28;20053;-87
2022/06/27 03:09:09;;;;;;;1.73;0.60;;;22.90;99.90;;;;;;5033470;28;20116;-87
2022/06/27 03:11:35;;;;;;;3.83;0.80;;;22.90;99.90;;;;;;5034645;28;20053;-87
2022/06/27 03:14:01;;;;;;;2.50;0.57;;;22.90;99.90;;;;;;5034625;28;20030;-87
2022/06/27 03:16:26;;;;;;;1.73;0.50;;;22.90;99.90;;;;;;5034551;28;20500;-87
2022/06/27 03:18:52;;;;;;;1.48;0.60;;;22.80;99.90;;;;;;5034595;28;20385;-87
2022/06/27 03:21:20;;;;;;;5.40;0.98;;;22.90;99.90;;;;;;5034509;28;20100;-87
2022/06/27 03:23:49;;;;;;;2.47;0.40;;;22.80;99.90;;;;;;5034439;28;20053;-87
2022/06/27 03:26:17;;;;;;;2.90;0.73;;;22.80;99.90;;;;;;5034437;28;20047;-87
2022/06/27 03:28:43;;;;;;;3.88;0.82;;;22.80;99.90;;;;;;5034370;28;20547;-87
2022/06/27 03:31:09;;;;;;;2.83;0.85;;;22.80;99.90;;;;;;5034861;28;20499;-92
2022/06/27 03:33:35;;;;;;;2.08;0.80;;;22.80;99.90;;;;;;5034890;28;20112;-91
2022/06/27 03:36:01;;;;;;;4.47;0.60;;;22.70;99.90;;;;;;5035804;28;20041;-90
2022/06/27 03:38:27;;;;;;;3.20;0.70;;;22.70;99.90;;;;;;5034402;28;20081;-90
2022/06/27 03:40:53;;;;;;;3.05;0.60;;;22.70;99.90;;;;;;5034671;28;20064;-91
2022/06/27 03:43:19;;;;;;;2.08;0.55;;;22.70;99.90;;;;;;5034843;28;20037;-89
2022/06/27 03:45:45;;;;;;;2.25;0.60;;;22.70;99.90;;;;;;5034038;28;20029;-89
2022/06/27 03:49:59;;;;;;;7.13;3.00;;;22.70;99.90;;;;;;5035739;28;20061;-88
2022/06/27 03:50:56;;;;;;;3.25;1.20;;;22.70;99.90;;;;;;5035251;28;20070;-89
2022/06/27 03:53:22;;;;;;;3.03;1.20;;;22.70;99.90;;;;;;5035244;28;20021;-89
2022/06/27 03:55:48;;;;;;;2.30;0.88;;;22.70;99.90;;;;;;5033940;28;20480;-89
2022/06/27 03:58:14;;;;;;;3.17;0.82;;;22.70;99.90;;;;;;5033796;28;20026;-87
2022/06/27 04:00:39;;;;;;;1.95;0.93;;;22.70;99.90;;;;;;5033793;28;20121;-87
2022/06/27 04:03:05;;;;;;;2.30;0.85;;;22.60;99.90;;;;;;5033678;28;20492;-88
2022/06/27 04:05:31;;;;;;;3.13;0.90;;;22.60;99.90;;;;;;5033582;28;20034;-88
2022/06/27 04:07:56;;;;;;;3.15;0.85;;;22.60;99.90;;;;;;5033695;28;20492;-88
2022/06/27 04:10:22;;;;;;;2.83;1.10;;;22.60;99.90;;;;;;5033775;28;20029;-89
2022/06/27 04:12:47;;;;;;;3.15;1.10;;;22.60;99.90;;;;;;5033667;28;20017;-89
2022/06/27 04:15:13;;;;;;;4.63;0.80;;;22.60;99.90;;;;;;5034911;28;20036;-89
2022/06/27 04:17:39;;;;;;;3.72;0.82;;;22.60;99.90;;;;;;5034383;28;20033;-88
2022/06/27 04:20:05;;;;;;;2.40;0.80;;;22.60;99.90;;;;;;5033102;28;20030;-88
2022/06/27 04:22:31;;;;;;;2.72;0.90;;;22.60;99.90;;;;;;5033356;28;20029;-89
2022/06/27 04:24:58;;;;;;;2.00;0.77;;;22.60;99.90;;;;;;5033310;28;20072;-88
2022/06/27 04:27:24;;;;;;;1.60;0.80;;;22.60;99.90;;;;;;5033247;28;20026;-88
2022/06/27 04:29:50;;;;;;;4.70;0.75;;;22.60;99.90;;;;;;5033232;28;20071;-87
2022/06/27 04:32:18;;;;;;;3.58;1.10;;;22.60;99.90;;;;;;5033094;28;20025;-87
2022/06/27 04:34:44;;;;;;;1.67;0.63;;;22.60;99.90;;;;;;5032929;28;20076;-87
2022/06/27 04:37:10;;;;;;;2.25;0.80;;;22.60;99.90;;;;;;5033076;28;20500;-87
2022/06/27 04:39:37;;;;;;;2.22;0.82;;;22.60;99.90;;;;;;5032969;28;20026;-87
2022/06/27 04:42:04;;;;;;;5.22;0.82;;;22.60;99.90;;;;;;5034567;28;20021;-86
2022/06/27 04:44:29;;;;;;;3.05;0.82;;;22.60;99.90;;;;;;5032851;28;20030;-87
2022/06/27 04:46:56;;;;;;;2.90;0.80;;;22.60;99.90;;;;;;5032790;28;20029;-87
2022/06/27 04:49:22;;;;;;;1.95;0.80;;;22.60;99.90;;;;;;5032828;28;20404;-87
2022/06/27 04:51:51;;;;;;;3.30;0.63;;;22.60;99.90;;;;;;5032821;28;20049;-87
2022/06/27 04:54:18;;;;;;;1.77;0.65;;;22.60;99.90;;;;;;5034086;28;20022;-87
2022/06/27 04:56:44;;;;;;;3.85;0.90;;;22.60;99.90;;;;;;5032669;28;20026;-87
2022/06/27 04:59:11;;;;;;;2.28;0.88;;;22.60;99.90;;;;;;5032622;28;20030;-87
2022/06/27 05:01:38;;;;;;;2.00;0.82;;;22.60;99.90;;;;;;5032646;28;20436;-87
2022/06/27 05:04:04;;;;;;;1.77;0.60;;;22.60;99.90;;;;;;5034061;28;20425;-86
2022/06/27 05:06:30;;;;;;;4.10;1.20;;;22.60;99.90;;;;;;5032670;28;20021;-86
2022/06/27 05:08:56;;;;;;;4.03;1.05;;;22.60;99.90;;;;;;5032570;28;20029;-86
2022/06/27 05:11:22;;;;;;;3.15;1.15;;;22.60;99.90;;;;;;5032570;28;20026;-86
2022/06/27 05:13:47;;;;;;;2.00;0.80;;;22.60;99.90;;;;;;5032706;28;20129;-86
2022/06/27 05:16:15;;;;;;;2.70;1.25;;;22.60;99.90;;;;;;5033715;28;20068;-87
2022/06/27 05:18:41;;;;;;;1.80;1.00;;;22.60;99.90;;;;;;5032573;28;20022;-87
2022/06/27 05:21:08;;;;;;;2.95;1.27;;;22.50;99.90;;;;;;5032395;28;20022;-87
2022/06/27 05:23:37;;;;;;;2.55;1.17;;;22.50;99.90;;;;;;5032427;28;20030;-87
2022/06/27 05:26:03;;;;;;;3.25;1.10;;;22.50;99.90;;;;;;5033625;28;20021;-87
2022/06/27 05:28:29;;;;;;;2.97;1.40;;;22.50;99.90;;;;;;5033558;28;20480;-87
2022/06/27 05:30:55;;;;;;;1.83;1.02;;;22.50;99.90;;;;;;5031830;28;20028;-86
2022/06/27 05:33:22;;;;;;;2.30;1.10;;;22.50;99.90;;;;;;5031925;28;20041;-87
2022/06/27 05:35:49;;;;;;;4.15;1.10;;;22.50;99.90;;;;;;5033320;28;20397;-87
2022/06/27 05:38:15;;;;;;;2.70;1.02;;;22.50;99.90;;;;;;5032258;28;20029;-87
2022/06/27 05:40:41;;;;;;;4.10;1.00;;;22.50;99.90;;;;;;5032343;28;20025;-87
2022/06/27 05:43:07;;;;;;;1.63;0.93;;;22.50;99.90;;;;;;5033448;28;20064;-87
2022/06/27 05:45:34;;;;;;;2.72;0.98;;;22.50;99.90;;;;;;5031957;28;20040;-86
2022/06/27 05:48:01;;;;;;;1.42;0.70;;;22.50;99.90;;;;;;5032261;28;20071;-87
2022/06/27 05:50:28;;;;;;;2.17;0.82;;;22.50;99.90;;;;;;5033255;28;20021;-87
2022/06/27 05:52:56;;;;;;;2.60;0.80;;;22.50;99.90;;;;;;5032034;28;20083;-87
2022/06/27 05:55:23;;;;;;;2.80;0.75;;;22.50;99.90;;;;;;5031979;28;20057;-87
2022/06/27 05:57:49;;;;;;;3.33;1.15;;;22.50;99.90;;;;;;5033458;28;20022;-87
2022/06/27 06:00:17;;;;;;;2.35;0.80;;;22.50;99.90;;;;;;5031903;28;20098;-87
2022/06/27 06:02:43;;;;;;;2.10;0.80;;;22.50;99.90;;;;;;5031920;28;20112;-87
2022/06/27 06:05:11;;;;;;;3.92;0.90;;;22.60;99.90;;;;;;5031829;28;20107;-87
2022/06/27 06:07:38;;;;;;;2.15;0.82;;;22.50;99.90;;;;;;5033133;28;20052;-87
2022/06/27 06:10:04;;;;;;;2.67;0.70;;;22.60;99.90;;;;;;5031968;28;20038;-87
2022/06/27 06:12:30;;;;;;;3.13;0.70;;;22.60;99.90;;;;;;5031848;28;20021;-86
2022/06/27 06:15:02;;;;;;;1.15;0.63;;;22.60;99.90;;;;;;5031813;28;20036;-86
2022/06/27 06:17:35;;;;;;;3.13;0.77;;;22.50;99.90;;;;;;5031756;28;20049;-87
2022/06/27 06:20:04;;;;;;;1.55;0.70;;;22.60;99.90;;;;;;5031848;28;20389;-87
2022/06/27 06:22:30;;;;;;;1.70;0.70;;;22.60;99.90;;;;;;5031776;28;20436;-87
2022/06/27 06:24:56;;;;;;;1.75;0.70;;;22.60;99.90;;;;;;5031649;28;20088;-87
2022/06/27 06:27:21;;;;;;;3.13;0.98;;;22.60;99.90;;;;;;5032902;28;20029;-87
2022/06/27 06:29:48;;;;;;;2.03;0.93;;;22.60;99.90;;;;;;5032909;28;20021;-87
2022/06/27 06:32:14;;;;;;;1.40;0.80;;;22.60;99.90;;;;;;5031623;28;20484;-87
2022/06/27 06:34:41;;;;;;;1.60;0.65;;;22.60;99.90;;;;;;5031408;28;20030;-86
2022/06/27 06:37:08;;;;;;;0.90;0.57;;;22.60;99.90;;;;;;5031534;28;20029;-86
2022/06/27 06:39:34;;;;;;;1.52;0.73;;;22.70;99.90;;;;;;5031601;28;20025;-86
2022/06/27 06:41:59;;;;;;;2.42;0.63;;;22.70;99.90;;;;;;5031488;28;20040;-86
2022/06/27 06:44:25;;;;;;;2.65;0.80;;;22.70;99.90;;;;;;5036580;28;20036;-85
2022/06/27 06:46:52;;;;;;;5.97;0.90;;;22.70;99.90;;;;;;5036365;28;20021;-86
2022/06/27 06:49:18;;;;;;;3.20;0.63;;;22.70;99.90;;;;;;5035101;28;20033;-86
2022/06/27 06:51:44;;;;;;;3.38;0.60;;;22.80;99.90;;;;;;5035050;28;20022;-86
2022/06/27 06:54:15;;;;;;;2.50;0.70;;;22.70;99.90;;;;;;5034999;28;20029;-86
2022/06/27 06:56:41;;;;;;;1.92;0.80;;;22.80;99.90;;;;;;5035013;28;20033;-86
2022/06/27 06:59:08;;;;;;;1.98;0.60;;;22.80;99.90;;;;;;5034888;28;20489;-86
2022/06/27 07:01:35;;;;;;;1.38;0.60;;;22.70;99.90;;;;;;5035128;28;20080;-85
2022/06/27 07:04:01;;;;;;;4.43;0.75;;;22.80;99.90;;;;;;5034871;28;20060;-86
2022/06/27 07:06:29;;;;;;;1.63;0.70;;;22.70;99.90;;;;;;5034774;28;20075;-86
2022/06/27 07:08:57;;;;;;;1.95;0.80;;;22.80;99.90;;;;;;5036026;28;20021;-86
2022/06/27 07:11:31;;;;;;;0.93;0.50;;;22.70;99.90;;;;;;5034697;28;20473;-86
2022/06/27 07:13:57;;;;;;;1.25;0.70;;;22.70;99.90;;;;;;5034709;28;20497;-86
2022/06/27 07:16:25;;;;;;;1.85;0.75;;;22.70;99.90;;;;;;5035880;28;20029;-87
2022/06/27 07:18:54;;;;;;;2.85;0.80;;;22.70;99.90;;;;;;5034564;28;20026;-86
2022/06/27 07:21:20;;;;;;;2.17;0.57;;;22.70;99.90;;;;;;5035795;28;20021;-86
2022/06/27 07:23:48;;;;;;;3.53;0.70;;;22.70;99.90;;;;;;5034373;28;20037;-86
2022/06/27 07:26:19;;;;;;;2.70;0.60;;;22.70;99.90;;;;;;5034747;28;20474;-86
2022/06/27 07:28:45;;;;;;;1.48;0.60;;;22.80;99.90;;;;;;5034427;28;20425;-87
2022/06/27 07:31:12;;;;;;;0.95;0.50;;;22.70;99.90;;;;;;5034377;28;20128;-86
2022/06/27 07:33:51;;;;;;;2.38;0.82;;;22.80;99.90;;;;;;5035527;28;20370;-86
2022/06/27 07:36:19;;;;;;;2.30;0.70;;;22.70;99.90;;;;;;5034073;28;20034;-88
2022/06/27 07:38:49;;;;;;;2.63;0.70;;;22.80;99.90;;;;;;5034197;28;20029;-85
2022/06/27 07:41:19;;;;;;;1.63;0.40;;;22.70;99.90;;;;;;5034470;28;20022;-86
2022/06/27 07:43:49;;;;;;;2.63;0.52;;;22.70;99.90;;;;;;5034032;28;20083;-85
2022/06/27 07:46:17;;;;;;;4.10;0.57;;;22.80;99.90;;;;;;5034065;28;20549;-85
2022/06/27 07:48:44;;;;;;;1.77;0.63;;;22.70;99.90;;;;;;5034065;28;20112;-86
2022/06/27 07:51:16;;;;;;;2.08;0.75;;;22.80;99.90;;;;;;5035202;28;20025;-86
2022/06/27 07:53:47;;;;;;;2.53;0.80;;;22.80;99.90;;;;;;5035227;28;20017;-86
2022/06/27 07:56:15;;;;;;;1.67;0.50;;;22.80;99.90;;;;;;5033318;28;20024;-86
2022/06/27 07:58:41;;;;;;;2.28;0.45;;;22.90;99.90;;;;;;5033765;28;20017;-84
2022/06/27 08:01:09;;;;;;;2.55;0.77;;;22.90;99.90;;;;;;5033718;28;20025;-85
2022/06/27 08:03:36;;;;;;;1.20;0.52;;;22.90;99.90;;;;;;5050245;28;20060;-85
2022/06/27 08:06:05;;;;;;;1.25;0.60;;;22.90;99.90;;;;;;5034949;28;20033;-85
2022/06/27 08:08:33;;;;;;;2.53;0.60;;;22.90;99.90;;;;;;5033627;28;20546;-85
2022/06/27 08:10:59;;;;;;;3.53;0.50;;;22.90;99.90;;;;;;5033564;28;20025;-85
2022/06/27 08:13:26;;;;;;;0.93;0.50;;;23.00;99.90;;;;;;5033426;28;20443;-85
2022/06/27 08:15:53;;;;;;;1.38;0.57;;;23.00;99.90;;;;;;5034752;28;20100;-85
2022/06/27 08:18:19;;;;;;;2.30;0.75;;;23.10;99.90;;;;;;5034700;28;20104;-86
2022/06/27 08:20:46;;;;;;;1.60;0.60;;;23.10;99.90;;;;;;5034651;28;20440;-87
2022/06/27 08:23:13;;;;;;;2.13;0.60;;;23.10;99.90;;;;;;5034651;28;20033;-87
2022/06/27 08:25:39;;;;;;;1.05;0.57;;;23.10;99.90;;;;;;5034531;28;20021;-88
2022/06/27 08:28:05;;;;;;;0.63;0.45;;;23.10;99.90;;;;;;5033291;28;20026;-87
2022/06/27 08:30:33;;;;;;;2.63;0.60;;;23.20;99.90;;;;;;5033345;28;20547;-87
2022/06/27 08:33:00;;;;;;;1.60;0.70;;;23.20;99.90;;;;;;5033177;28;20117;-87
2022/06/27 08:35:26;;;;;;;2.53;0.50;;;23.20;99.90;;;;;;5032890;28;20049;-87
2022/06/27 08:37:52;;;;;;;1.05;0.47;;;23.20;99.90;;;;;;5033051;28;20030;-86
2022/06/27 08:40:19;;;;;;;2.20;0.65;;;23.20;99.90;;;;;;5032977;28;20063;-86
2022/06/27 08:42:46;;;;;;;1.33;0.50;;;23.20;99.90;;;;;;5033507;28;20508;-87
2022/06/27 08:45:17;;;;;;;1.30;0.60;;;23.20;99.90;;;;;;5032875;28;20033;-87
2022/06/27 08:47:44;;;;;;;1.63;0.77;;;23.20;99.90;;;;;;5032902;28;20067;-87
2022/06/27 08:50:11;;;;;;;2.70;0.50;;;23.10;99.90;;;;;;5032850;28;20393;-87
2022/06/27 08:52:42;;;;;;;2.55;0.80;;;23.10;99.90;;;;;;5049418;28;20120;-87
2022/06/27 08:55:11;;;;;;;1.65;0.65;;;23.20;99.90;;;;;;5032784;28;20056;-86
2022/06/27 08:57:39;;;;;;;1.98;0.57;;;23.10;99.90;;;;;;5032657;28;20030;-88
2022/06/27 09:00:09;;;;;;;0.98;0.40;;;23.10;99.90;;;;;;5032676;28;20025;-87
2022/06/27 09:02:42;;;;;;;1.17;0.47;;;23.10;99.90;;;;;;5032633;28;20078;-88
2022/06/27 09:05:24;;;;;;;3.47;0.75;;;23.10;99.90;;;;;;5032525;28;20481;-87
2022/06/27 09:07:55;;;;;;;0.98;0.50;;;23.10;99.90;;;;;;5031700;28;20074;-88
2022/06/27 09:10:27;;;;;;;4.70;0.98;;;23.10;99.90;;;;;;5032941;28;20032;-87
2022/06/27 09:12:58;;;;;;;70.63;4.00;;;23.10;99.90;;;;;;5032660;28;20017;-88
2022/06/27 09:15:45;;;;;;;111.80;5.45;;;23.00;99.90;;;;;;5032381;28;20072;-87
2022/06/27 09:18:13;;;;;;;82.57;4.90;;;22.70;99.90;;;;;;5032906;28;20538;-88
2022/06/27 09:20:59;;;;;;;70.45;5.60;;;22.70;99.90;;;;;;5032336;28;20052;-88
2022/06/27 09:23:47;;;;;;;73.15;5.55;;;22.70;99.90;;;;;;5032380;28;20030;-89
2022/06/27 09:26:28;;;;;;;39.50;3.53;;;22.70;99.90;;;;;;5032382;28;20052;-88
2022/06/27 09:29:00;;;;;;;41.20;4.20;;;22.70;99.90;;;;;;5033683;28;20520;-89
2022/06/27 09:31:30;;;;;;;47.20;3.42;;;22.80;99.90;;;;;;5032399;28;20025;-88
2022/06/27 09:34:09;;;;;;;42.30;2.95;;;22.90;99.90;;;;;;5032167;28;20049;-88
2022/06/27 09:36:46;;;;;;;32.60;3.05;;;22.90;99.90;;;;;;5032482;28;20049;-88
2022/06/27 09:39:36;;;;;;;39.35;3.25;;;22.90;99.90;;;;;;5032172;28;20083;-88
2022/06/27 09:42:10;;;;;;;40.25;3.13;;;23.00;99.90;;;;;;5032186;28;20068;-88
2022/06/27 09:44:45;;;;;;;30.10;2.97;;;23.00;99.90;;;;;;5033333;28;20037;-87
2022/06/27 09:47:16;;;;;;;29.23;2.90;;;23.10;99.90;;;;;;5032034;28;20022;-87
2022/06/27 09:49:45;;;;;;;29.23;2.97;;;23.20;99.90;;;;;;5033250;28;20427;-87
2022/06/27 09:52:13;;;;;;;29.00;2.33;;;23.20;99.90;;;;;;5032294;28;20018;-87
2022/06/27 09:54:42;;;;;;;25.75;2.67;;;23.20;99.90;;;;;;5032247;28;20033;-87
2022/06/27 09:57:09;;;;;;;21.15;2.08;;;23.30;99.90;;;;;;5033225;28;20060;-88
2022/06/27 09:59:36;;;;;;;21.67;2.25;;;23.40;99.90;;;;;;5033201;28;20036;-88
2022/06/27 10:02:06;;;;;;;21.60;2.67;;;23.40;99.90;;;;;;5032280;28;20022;-89
2022/06/27 10:04:35;;;;;;;18.92;2.00;;;23.40;99.90;;;;;;5032762;28;20032;-88
2022/06/27 10:07:02;;;;;;;19.83;2.17;;;23.40;99.90;;;;;;5031863;28;20026;-88
2022/06/27 10:09:30;;;;;;;22.65;2.00;;;23.50;99.90;;;;;;5031831;28;20056;-89
2022/06/27 10:12:25;;;;;;;16.98;1.95;;;23.50;99.90;;;;;;5033150;28;20105;-89
2022/06/27 10:15:09;;;;;;;;;;;23.50;99.90;;;;;;5032268;28;20496;-88
2022/06/27 10:17:49;;;;;;;14.80;2.33;;;23.60;99.90;;;;;;5032304;28;19905;-88
2022/06/27 10:20:25;;;;;;;14.35;2.03;;;23.60;99.90;;;;;;5035735;28;20033;-88
2022/06/27 10:23:03;;;;;;;6.95;1.48;;;23.60;99.90;;;;;;5035690;28;20030;-88
2022/06/27 10:25:29;;;;;;;13.00;1.40;;;23.60;99.90;;;;;;5035640;28;20029;-88
2022/06/27 10:28:10;;;;;;;12.25;1.85;;;23.60;99.90;;;;;;5035562;28;20033;-88
2022/06/27 10:30:40;;;;;;;7.07;1.38;;;23.50;99.90;;;;;;5035516;28;20033;-88
2022/06/27 10:33:18;;;;;;;8.73;1.40;;;23.50;99.90;;;;;;5035374;28;20021;-88
2022/06/27 10:35:59;;;;;;;11.23;1.20;;;23.50;99.90;;;;;;5035136;28;20405;-88
2022/06/27 10:38:24;;;;;;;10.75;1.30;;;23.50;99.90;;;;;;5035392;28;20112;-89
2022/06/27 10:40:52;;;;;;;7.45;1.20;;;23.40;99.90;;;;;;5035228;28;20512;-88
2022/06/27 10:43:43;;;;;;;8.90;1.17;;;23.50;99.90;;;;;;5035414;28;20489;-89
2022/06/27 10:46:11;;;;;;;9.30;1.50;;;23.40;99.90;;;;;;5025820;28;20385;-88
2022/06/27 10:48:52;;;;;;;5.45;1.05;;;23.40;99.90;;;;;;5035110;28;20065;-88
2022/06/27 10:51:22;;;;;;;5.93;1.27;;;23.40;99.90;;;;;;5035174;28;20083;-89
2022/06/27 10:54:14;;;;;;;5.80;0.93;;;23.40;99.90;;;;;;5036264;28;20026;-88
2022/06/27 10:56:54;;;;;;;6.43;1.20;;;23.40;99.90;;;;;;5026376;28;20065;-88
2022/06/27 10:59:20;;;;;;;4.68;0.90;;;23.40;99.90;;;;;;5035161;28;20033;-88
2022/06/27 11:01:57;;;;;;;8.38;1.30;;;23.40;99.90;;;;;;5034932;28;20033;-88
2022/06/27 11:04:34;;;;;;;5.68;1.08;;;23.30;99.90;;;;;;5034828;28;20025;-88
2022/06/27 11:07:01;;;;;;;3.75;0.82;;;23.30;99.90;;;;;;5034946;28;20485;-88
2022/06/27 11:09:45;;;;;;;5.40;1.13;;;23.30;99.90;;;;;;5034804;28;20080;-89
2022/06/27 11:12:14;;;;;;;3.55;1.00;;;23.20;99.90;;;;;;5034771;28;20485;-89
2022/06/27 11:14:50;;;;;;;6.00;1.00;;;23.20;99.90;;;;;;5034754;28;20025;-89
2022/06/27 11:17:43;;;;;;;7.63;1.00;;;23.20;99.90;;;;;;5036241;28;20040;-89
2022/06/27 11:20:16;;;;;;;2.65;0.90;;;23.30;99.90;;;;;;5031829;28;20044;-88
2022/06/27 11:22:44;;;;;;;4.18;0.80;;;23.30;99.90;;;;;;5034709;28;20025;-89
2022/06/27 11:25:10;;;;;;;2.40;0.88;;;23.30;99.90;;;;;;5034609;28;20041;-88
2022/06/27 11:27:57;;;;;;;3.50;0.93;;;23.20;99.90;;;;;;5034464;28;20435;-88
2022/06/27 11:33:15;;;;;;;5.65;1.10;;;23.20;99.90;;;;;;5035667;28;20040;-89
2022/06/27 11:35:41;;;;;;;4.30;1.10;;;23.20;99.90;;;;;;5034094;28;20493;-88
2022/06/27 11:38:07;;;;;;;4.78;1.23;;;23.20;99.90;;;;;;5034280;28;20032;-88
2022/06/27 11:40:33;;;;;;;3.80;1.00;;;23.20;99.90;;;;;;5034217;28;20025;-88
2022/06/27 11:42:59;;;;;;;3.70;0.90;;;23.20;99.90;;;;;;5034200;28;20100;-89
2022/06/27 11:45:24;;;;;;;4.07;0.82;;;23.20;99.90;;;;;;5033979;28;20030;-89
2022/06/27 11:47:50;;;;;;;3.22;0.88;;;23.20;99.90;;;;;;5034135;28;20472;-88
2022/06/27 11:50:19;;;;;;;5.45;0.82;;;23.10;99.90;;;;;;5034011;28;20057;-88
2022/06/27 11:52:51;;;;;;;4.85;0.80;;;23.20;99.90;;;;;;5033942;28;20036;-88
2022/06/27 11:55:24;;;;;;;1.98;0.70;;;23.20;99.90;;;;;;5034435;28;20481;-87
2022/06/27 11:57:54;;;;;;;1.20;0.70;;;23.20;99.90;;;;;;5034974;28;20452;-89
2022/06/27 12:00:28;;;;;;;0.73;0.50;;;23.40;99.90;;;;;;5036783;28;20034;-89
2022/06/27 12:03:00;;;;;;;;;;;23.40;99.90;;;;;;5035088;28;20477;-88
2022/06/27 12:05:26;;;;;;;1.70;0.70;;;23.40;99.90;;;;;;5034541;28;19913;-89
2022/06/27 12:08:13;;;;;;;4.95;0.82;;;23.40;99.90;;;;;;5034142;28;20029;-88
2022/06/27 12:13:48;;;;;;;2.47;0.80;;;23.20;99.90;;;;;;4993547;28;20019;-88
2022/06/27 12:16:14;;;;;;;2.78;0.70;;;23.10;99.90;;;;;;5025166;28;20548;-89
2022/06/27 12:18:43;;;;;;;3.28;1.08;;;23.00;99.90;;;;;;5034525;28;20461;-89
2022/06/27 12:21:09;;;;;;;1.13;0.90;;;23.10;99.90;;;;;;5033413;28;20056;-89
2022/06/27 12:23:35;;;;;;;2.03;1.02;;;23.10;99.90;;;;;;5034620;28;20029;-88
2022/06/27 12:26:01;;;;;;;4.25;1.10;;;23.20;99.90;;;;;;5034473;28;20022;-89
2022/06/27 12:28:27;;;;;;;1.27;1.10;;;23.10;99.90;;;;;;5033277;28;20033;-89
2022/06/27 12:30:53;;;;;;;2.25;1.33;;;23.20;99.90;;;;;;5033237;28;20025;-88
2022/06/27 12:33:18;;;;;;;4.32;1.40;;;23.20;99.90;;;;;;5034633;28;20155;-89
2022/06/27 12:35:44;;;;;;;1.80;1.30;;;23.20;99.90;;;;;;5032959;28;20199;-89
2022/06/27 12:38:10;;;;;;;2.97;1.40;;;23.20;99.90;;;;;;5033039;28;20036;-89
2022/06/27 12:40:36;;;;;;;1.83;1.50;;;23.30;99.90;;;;;;5034361;28;20108;-89
2022/06/27 12:43:04;;;;;;;1.48;1.38;;;23.40;99.90;;;;;;5033006;28;20489;-89
2022/06/27 12:45:32;;;;;;;2.67;1.40;;;23.40;99.90;;;;;;5032895;28;20058;-88
2022/06/27 12:47:58;;;;;;;1.40;1.20;;;23.50;99.90;;;;;;5033144;28;20026;-88
2022/06/27 12:50:24;;;;;;;1.67;1.25;;;23.60;99.90;;;;;;5032817;28;20112;-89
2022/06/27 12:52:50;;;;;;;1.95;1.40;;;23.60;99.90;;;;;;5032948;28;20477;-87
2022/06/27 12:55:15;;;;;;;3.92;1.42;;;23.80;99.90;;;;;;5032751;28;20048;-89
2022/06/27 12:57:42;;;;;;;1.52;1.33;;;23.90;99.90;;;;;;5032692;28;20477;-89